Time;durP1;ratioP1;P1;durP2;ratioP2;P2;SDS_P1;SDS_P2;PMS_P1;PMS_P2;Temp;Humidity;BMP_temperature;BMP_pressure;BME280_temperature;BME280_humidity;BME280_pressure;Samples;Min_cycle;Max_cycle;Signal;HPM_P1;HPM_P2
2022/08/03 00:01:22;;;;;;;6.60;2.88;;;19.60;99.90;;;;;;4980075;28;20129;-75
2022/08/03 00:03:48;;;;;;;6.22;2.60;;;19.60;99.90;;;;;;4980055;28;20054;-74
2022/08/03 00:06:14;;;;;;;7.45;2.92;;;19.60;99.90;;;;;;4996061;28;20467;-74
2022/08/03 00:08:40;;;;;;;6.65;3.03;;;19.60;99.90;;;;;;4996000;28;20094;-75
2022/08/03 00:11:05;;;;;;;5.88;2.90;;;19.60;99.90;;;;;;4980725;28;20097;-75
2022/08/03 00:13:32;;;;;;;5.18;2.67;;;19.60;99.90;;;;;;4996051;28;20128;-75
2022/08/03 00:15:58;;;;;;;5.20;3.13;;;19.60;99.90;;;;;;4996895;28;20057;-75
2022/08/03 00:18:24;;;;;;;6.75;3.00;;;19.50;99.90;;;;;;4996388;28;20046;-75
2022/08/03 00:20:49;;;;;;;6.05;2.80;;;19.50;99.90;;;;;;4980414;28;20050;-75
2022/08/03 00:23:15;;;;;;;7.47;3.33;;;19.50;99.90;;;;;;4979432;28;20046;-75
2022/08/03 00:25:41;;;;;;;4.97;2.60;;;19.50;99.90;;;;;;4996402;28;20042;-75
2022/08/03 00:28:07;;;;;;;6.50;2.78;;;19.50;99.90;;;;;;4996731;28;20467;-76
2022/08/03 00:30:34;;;;;;;6.07;2.67;;;19.50;99.90;;;;;;4995745;28;20390;-75
2022/08/03 00:33:00;;;;;;;6.35;2.83;;;19.40;99.90;;;;;;4979289;28;20050;-75
2022/08/03 00:35:27;;;;;;;3.70;2.55;;;19.50;99.90;;;;;;4995294;28;20046;-75
2022/08/03 00:37:53;;;;;;;4.90;2.05;;;19.40;99.90;;;;;;4995402;28;20406;-75
2022/08/03 00:40:19;;;;;;;8.50;2.17;;;19.40;99.90;;;;;;4995490;28;20049;-74
2022/08/03 00:42:59;;;;;;;6.90;2.20;;;19.40;99.90;;;;;;4996508;28;20085;-74
2022/08/03 00:45:36;;;;;;;5.53;2.15;;;19.40;99.90;;;;;;4995492;28;20395;-75
2022/08/03 00:48:04;;;;;;;4.28;1.80;;;19.30;99.90;;;;;;4995685;28;20106;-75
2022/08/03 00:50:34;;;;;;;5.05;1.70;;;19.30;99.90;;;;;;4996337;28;20402;-75
2022/08/03 00:53:02;;;;;;;5.75;2.20;;;19.30;99.90;;;;;;4996569;28;20057;-74
2022/08/03 00:55:28;;;;;;;4.43;1.52;;;19.30;99.90;;;;;;4995552;28;20082;-75
2022/08/03 00:57:54;;;;;;;7.05;1.40;;;19.30;99.90;;;;;;4995020;28;20050;-75
2022/08/03 01:00:23;;;;;;;4.35;1.95;;;19.30;99.90;;;;;;4995937;28;20097;-74
2022/08/03 01:02:49;;;;;;;4.47;1.50;;;19.30;99.90;;;;;;4995378;28;20042;-75
2022/08/03 01:05:15;;;;;;;5.75;1.55;;;19.30;99.90;;;;;;4979601;28;20065;-77
2022/08/03 01:08:03;;;;;;;4.28;1.52;;;19.30;99.90;;;;;;4996071;28;20105;-74
2022/08/03 01:10:51;;;;;;;5.05;1.50;;;19.30;99.90;;;;;;4994585;28;20515;-74
2022/08/03 01:13:29;;;;;;;4.63;1.35;;;19.30;99.90;;;;;;4995028;28;20086;-75
2022/08/03 01:16:07;;;;;;;3.67;1.30;;;19.20;99.90;;;;;;4995126;28;20093;-75
2022/08/03 01:18:44;;;;;;;4.95;1.30;;;19.20;99.90;;;;;;4995349;28;20545;-75
2022/08/03 01:21:16;;;;;;;5.28;1.55;;;19.20;99.90;;;;;;4978671;28;20101;-74
2022/08/03 01:23:45;;;;;;;;;;;19.20;99.90;;;;;;4996958;28;20050;-75
2022/08/03 01:26:32;;;;;;;5.18;1.15;;;19.20;99.90;;;;;;4995510;28;19922;-74
2022/08/03 01:29:07;;;;;;;3.53;1.20;;;19.20;99.90;;;;;;4994640;28;20057;-74
2022/08/03 01:31:40;;;;;;;2.03;1.05;;;19.20;99.90;;;;;;4979190;28;20092;-74
2022/08/03 01:34:10;;;;;;;5.25;0.85;;;19.20;99.90;;;;;;4994500;28;20086;-75
2022/08/03 01:36:42;;;;;;;5.70;1.00;;;19.20;99.90;;;;;;4994429;28;20100;-75
2022/08/03 01:39:08;;;;;;;3.55;0.93;;;19.20;99.90;;;;;;4996285;28;20105;-74
2022/08/03 01:41:59;;;;;;;4.35;1.05;;;19.20;99.90;;;;;;4995922;28;20368;-74
2022/08/03 01:44:29;;;;;;;4.45;1.40;;;19.20;99.90;;;;;;4994261;28;20081;-74
2022/08/03 01:46:58;;;;;;;4.43;1.10;;;19.20;99.90;;;;;;4994483;28;20093;-75
2022/08/03 01:49:25;;;;;;;4.15;1.20;;;19.20;99.90;;;;;;4994237;28;20050;-75
2022/08/03 01:51:52;;;;;;;3.15;1.00;;;19.20;99.90;;;;;;4978005;28;20133;-74
2022/08/03 01:54:20;;;;;;;3.85;0.93;;;19.20;99.90;;;;;;4994789;28;20129;-75
2022/08/03 01:56:47;;;;;;;5.40;1.00;;;19.30;99.90;;;;;;4993879;28;20442;-75
2022/08/03 01:59:16;;;;;;;4.78;1.10;;;19.30;99.90;;;;;;4994102;28;20058;-75
2022/08/03 02:01:43;;;;;;;4.13;1.20;;;19.30;99.90;;;;;;4994036;28;20063;-75
2022/08/03 02:04:11;;;;;;;1.88;0.85;;;19.30;99.90;;;;;;4993525;28;20046;-75
2022/08/03 02:06:38;;;;;;;2.97;0.80;;;19.20;99.90;;;;;;4993789;28;20046;-75
2022/08/03 02:09:06;;;;;;;3.60;0.80;;;19.20;99.90;;;;;;4961552;28;20491;-75
2022/08/03 02:11:34;;;;;;;4.63;0.85;;;19.20;99.90;;;;;;4978577;28;20433;-75
2022/08/03 02:14:03;;;;;;;2.88;0.80;;;19.20;99.90;;;;;;4995641;28;20103;-75
2022/08/03 02:16:32;;;;;;;3.13;0.90;;;19.20;99.90;;;;;;4994724;28;20079;-74
2022/08/03 02:19:00;;;;;;;2.20;0.75;;;19.20;99.90;;;;;;4994641;28;20407;-75
2022/08/03 02:21:28;;;;;;;2.85;0.80;;;19.20;99.90;;;;;;4993703;28;20049;-74
2022/08/03 02:23:54;;;;;;;3.67;1.40;;;19.10;99.90;;;;;;4995424;28;20495;-75
2022/08/03 02:26:23;;;;;;;5.57;1.00;;;19.10;99.90;;;;;;4977574;28;20089;-75
2022/08/03 02:28:52;;;;;;;4.28;1.00;;;19.10;99.90;;;;;;4994545;28;20057;-75
2022/08/03 02:31:22;;;;;;;3.72;0.80;;;19.10;99.90;;;;;;4995278;28;20154;-75
2022/08/03 02:33:58;;;;;;;3.15;1.40;;;19.00;99.90;;;;;;4977010;28;20050;-75
2022/08/03 02:36:30;;;;;;;3.33;0.77;;;19.00;99.90;;;;;;4994635;28;20184;-75
2022/08/03 02:38:58;;;;;;;3.22;0.85;;;19.00;99.90;;;;;;4993283;28;20057;-75
2022/08/03 02:41:31;;;;;;;6.32;0.90;;;19.00;99.90;;;;;;4993458;28;20394;-75
2022/08/03 02:44:01;;;;;;;2.67;1.10;;;19.00;99.90;;;;;;4976953;28;20085;-74
2022/08/03 02:46:32;;;;;;;2.80;1.05;;;18.90;99.90;;;;;;4993308;28;20525;-75
2022/08/03 02:49:00;;;;;;;4.47;1.40;;;18.90;99.90;;;;;;4994842;28;20047;-74
2022/08/03 02:51:29;;;;;;;5.15;1.10;;;18.80;99.90;;;;;;4977350;28;20313;-74
2022/08/03 02:53:59;;;;;;;3.75;1.02;;;18.80;99.90;;;;;;4994255;28;20113;-75
2022/08/03 02:56:27;;;;;;;3.90;1.00;;;18.80;99.90;;;;;;4992885;28;20045;-74
2022/08/03 02:58:55;;;;;;;5.60;1.30;;;18.70;99.90;;;;;;4992976;28;20084;-74
2022/08/03 03:01:25;;;;;;;5.53;1.45;;;18.70;99.90;;;;;;4961176;28;20046;-75
2022/08/03 03:03:53;;;;;;;4.15;1.23;;;18.60;99.90;;;;;;4992862;28;20101;-75
2022/08/03 03:06:20;;;;;;;7.60;1.75;;;18.60;99.90;;;;;;4994150;28;20482;-75
2022/08/03 03:08:46;;;;;;;5.60;1.60;;;18.60;99.90;;;;;;4976756;28;20046;-75
2022/08/03 03:11:14;;;;;;;2.78;1.52;;;18.60;99.90;;;;;;4993936;28;20054;-75
2022/08/03 03:13:45;;;;;;;4.25;1.88;;;18.50;99.90;;;;;;4977703;28;20085;-75
2022/08/03 03:16:12;;;;;;;6.43;1.67;;;18.50;99.90;;;;;;4977665;28;20050;-75
2022/08/03 03:18:39;;;;;;;6.75;1.88;;;18.50;99.90;;;;;;4976909;28;20380;-75
2022/08/03 03:21:08;;;;;;;6.07;1.50;;;18.50;99.90;;;;;;4993169;28;20486;-75
2022/08/03 03:23:37;;;;;;;4.32;1.83;;;18.50;99.90;;;;;;4994046;28;20048;-75
2022/08/03 03:26:04;;;;;;;5.03;1.95;;;18.40;99.90;;;;;;4993961;28;20367;-74
2022/08/03 03:28:30;;;;;;;3.67;1.40;;;18.40;99.90;;;;;;4994085;28;20054;-74
2022/08/03 03:30:57;;;;;;;3.60;1.48;;;18.40;99.90;;;;;;4992921;28;20050;-75
2022/08/03 03:33:23;;;;;;;5.20;1.60;;;18.40;99.90;;;;;;4993039;28;20054;-75
2022/08/03 03:35:50;;;;;;;5.35;1.60;;;18.40;99.90;;;;;;4961136;28;20064;-75
2022/08/03 03:38:16;;;;;;;5.13;1.75;;;18.40;99.90;;;;;;4992641;28;20501;-75
2022/08/03 03:40:42;;;;;;;9.63;2.45;;;18.40;99.90;;;;;;4994615;28;20054;-75
2022/08/03 03:43:09;;;;;;;3.83;1.73;;;18.40;99.90;;;;;;4976900;28;20057;-75
2022/08/03 03:45:36;;;;;;;5.75;1.60;;;18.40;99.90;;;;;;4976538;28;20046;-75
2022/08/03 03:48:04;;;;;;;7.38;1.88;;;18.40;99.90;;;;;;4976688;28;20047;-75
2022/08/03 03:50:34;;;;;;;4.05;1.80;;;18.40;99.90;;;;;;4993026;28;20050;-75
2022/08/03 03:53:01;;;;;;;7.38;1.83;;;18.40;99.90;;;;;;4993747;28;20049;-75
2022/08/03 03:55:27;;;;;;;6.57;1.90;;;18.40;99.90;;;;;;4992601;28;20125;-75
2022/08/03 03:57:53;;;;;;;4.18;1.40;;;18.30;99.90;;;;;;4960296;28;20046;-75
2022/08/03 04:00:19;;;;;;;5.30;1.52;;;18.30;99.90;;;;;;4994175;28;20050;-75
2022/08/03 04:02:45;;;;;;;6.18;1.98;;;18.30;99.90;;;;;;4992937;28;20058;-74
2022/08/03 04:11:21;;;;;;;3.67;1.60;;;18.30;99.90;;;;;;4995671;28;20062;-74
2022/08/03 04:14:05;;;;;;;6.72;2.53;;;18.30;99.90;;;;;;4995964;28;20141;-74
2022/08/03 04:16:35;;;;;;;5.70;1.65;;;18.30;99.90;;;;;;4995789;28;20045;-74
2022/08/03 04:19:07;;;;;;;4.72;1.77;;;18.30;99.90;;;;;;4996129;28;20506;-74
2022/08/03 04:21:36;;;;;;;4.03;1.80;;;18.20;99.90;;;;;;4996971;28;20038;-74
2022/08/03 04:24:06;;;;;;;7.72;1.73;;;18.30;99.90;;;;;;4997638;28;20402;-74
2022/08/03 04:26:36;;;;;;;5.82;2.10;;;18.30;99.90;;;;;;4979855;28;20042;-75
2022/08/03 04:29:04;;;;;;;4.25;2.10;;;18.20;99.90;;;;;;4995544;28;20057;-75
2022/08/03 04:31:30;;;;;;;4.88;2.00;;;18.20;99.90;;;;;;4997017;28;20498;-75
2022/08/03 04:33:57;;;;;;;4.15;2.20;;;18.30;99.90;;;;;;4995567;28;20050;-74
2022/08/03 04:36:30;;;;;;;5.47;1.77;;;18.20;99.90;;;;;;4995556;28;20090;-74
2022/08/03 04:39:02;;;;;;;4.10;2.20;;;18.20;99.90;;;;;;4995615;28;20057;-74
2022/08/03 04:41:30;;;;;;;5.50;1.93;;;18.30;99.90;;;;;;4995863;28;20065;-74
2022/08/03 04:43:59;;;;;;;4.90;2.10;;;18.30;99.90;;;;;;4979361;28;20054;-75
2022/08/03 04:46:31;;;;;;;4.22;1.90;;;18.30;99.90;;;;;;4995475;28;20050;-74
2022/08/03 04:48:58;;;;;;;7.72;2.00;;;18.30;99.90;;;;;;4996375;28;20054;-75
2022/08/03 04:51:24;;;;;;;3.72;2.00;;;18.30;99.90;;;;;;4979206;28;20093;-75
2022/08/03 04:53:50;;;;;;;3.80;2.08;;;18.30;99.90;;;;;;4995936;28;20394;-75
2022/08/03 04:56:16;;;;;;;3.92;1.90;;;18.30;99.90;;;;;;4995218;28;20046;-75
2022/08/03 04:58:42;;;;;;;3.88;1.90;;;18.40;99.90;;;;;;4995261;28;20046;-75
2022/08/03 05:01:07;;;;;;;5.68;2.00;;;18.30;99.90;;;;;;4995221;28;20084;-74
2022/08/03 05:03:33;;;;;;;5.38;1.88;;;18.40;99.90;;;;;;4995130;28;20133;-75
2022/08/03 05:05:59;;;;;;;3.38;1.75;;;18.40;99.90;;;;;;4995143;28;20093;-75
2022/08/03 05:08:24;;;;;;;5.50;1.85;;;18.40;99.90;;;;;;4994547;28;20483;-75
2022/08/03 05:10:50;;;;;;;4.00;1.67;;;18.40;99.90;;;;;;4978480;28;20120;-75
2022/08/03 05:13:16;;;;;;;3.83;1.80;;;18.50;99.90;;;;;;4995977;28;20073;-74
2022/08/03 05:15:41;;;;;;;5.30;1.85;;;18.50;99.90;;;;;;4995245;28;20038;-74
2022/08/03 05:18:07;;;;;;;6.18;2.03;;;18.60;99.90;;;;;;4978490;28;20085;-74
2022/08/03 05:20:33;;;;;;;5.80;1.80;;;18.60;99.90;;;;;;4978539;28;20072;-75
2022/08/03 05:23:02;;;;;;;8.52;1.80;;;18.60;99.90;;;;;;4994688;28;20043;-75
2022/08/03 05:25:29;;;;;;;4.93;1.70;;;18.70;99.90;;;;;;4978513;28;20053;-75
2022/08/03 05:27:55;;;;;;;8.98;2.08;;;18.70;99.90;;;;;;4994716;28;20050;-75
2022/08/03 05:30:21;;;;;;;7.50;1.70;;;18.80;99.90;;;;;;4978567;28;20453;-75
2022/08/03 05:32:46;;;;;;;6.80;1.70;;;18.80;99.90;;;;;;4994581;28;20486;-75
2022/08/03 05:35:12;;;;;;;4.93;2.13;;;18.90;99.90;;;;;;4978294;28;20053;-75
2022/08/03 05:37:38;;;;;;;6.38;1.80;;;18.90;99.90;;;;;;4995419;28;20049;-75
2022/08/03 05:40:04;;;;;;;4.95;1.73;;;18.90;99.90;;;;;;4994275;28;20478;-75
2022/08/03 05:42:30;;;;;;;7.53;2.15;;;19.00;99.90;;;;;;4994410;28;20101;-75
2022/08/03 05:44:56;;;;;;;5.00;1.55;;;19.10;99.90;;;;;;4994166;28;20042;-75
2022/08/03 05:47:21;;;;;;;4.75;1.63;;;19.10;99.90;;;;;;4994117;28;20042;-75
2022/08/03 05:49:47;;;;;;;2.95;1.42;;;19.10;99.90;;;;;;4978809;28;20479;-75
2022/08/03 05:52:13;;;;;;;5.97;1.92;;;19.20;99.90;;;;;;4978857;28;20049;-75
2022/08/03 05:54:39;;;;;;;7.78;1.63;;;19.20;99.90;;;;;;4994050;28;20430;-74
2022/08/03 05:57:04;;;;;;;4.72;1.45;;;19.30;99.90;;;;;;4993711;28;20486;-75
2022/08/03 05:59:30;;;;;;;8.35;1.92;;;19.30;99.90;;;;;;4994389;28;20185;-75
2022/08/03 06:01:56;;;;;;;5.50;1.60;;;19.30;99.90;;;;;;4993930;28;20497;-75
2022/08/03 06:04:21;;;;;;;7.30;2.20;;;19.40;99.90;;;;;;4994948;28;20465;-75
2022/08/03 06:06:49;;;;;;;6.70;2.33;;;19.40;99.90;;;;;;4993728;28;20038;-75
2022/08/03 06:09:15;;;;;;;6.70;1.65;;;19.40;99.90;;;;;;4993627;28;20054;-75
2022/08/03 06:11:41;;;;;;;6.95;1.52;;;19.50;99.90;;;;;;4994829;28;20054;-76
2022/08/03 06:14:07;;;;;;;7.63;2.08;;;19.50;99.90;;;;;;4994761;28;20049;-76
2022/08/03 06:16:32;;;;;;;6.47;1.30;;;19.60;99.90;;;;;;4994026;28;20455;-76
2022/08/03 06:18:58;;;;;;;7.35;1.77;;;19.60;99.90;;;;;;4977453;28;20046;-75
2022/08/03 06:21:24;;;;;;;5.28;1.98;;;19.70;99.90;;;;;;4994666;28;20053;-76
2022/08/03 06:23:49;;;;;;;11.00;2.42;;;19.70;99.90;;;;;;4977318;28;20504;-75
2022/08/03 06:26:15;;;;;;;8.00;1.60;;;19.70;99.90;;;;;;4994366;28;20052;-75
2022/08/03 06:28:44;;;;;;;5.38;1.77;;;19.80;99.90;;;;;;4961362;28;20108;-75
2022/08/03 06:31:09;;;;;;;7.18;1.92;;;19.80;99.90;;;;;;4993115;28;20097;-75
2022/08/03 06:33:35;;;;;;;7.75;1.77;;;19.80;99.90;;;;;;4993296;28;20086;-75
2022/08/03 06:36:01;;;;;;;5.47;1.80;;;19.80;99.90;;;;;;4993459;28;20046;-79
2022/08/03 06:38:28;;;;;;;6.38;2.58;;;19.90;99.90;;;;;;4993454;28;20050;-75
2022/08/03 06:40:53;;;;;;;9.18;1.80;;;19.90;99.90;;;;;;4977437;28;20058;-80
2022/08/03 06:43:21;;;;;;;6.03;1.60;;;19.90;99.90;;;;;;4960424;28;20383;-81
2022/08/03 06:45:46;;;;;;;8.45;2.00;;;19.90;99.90;;;;;;4976352;28;20058;-82
2022/08/03 06:48:12;;;;;;;7.38;1.75;;;20.00;99.90;;;;;;4992597;28;20057;-83
2022/08/03 06:50:40;;;;;;;9.13;1.60;;;20.00;99.90;;;;;;4976577;28;20058;-85
2022/08/03 06:53:09;;;;;;;6.05;1.80;;;20.00;99.90;;;;;;4992548;28;20050;-84
2022/08/03 06:55:35;;;;;;;8.57;1.83;;;20.00;99.90;;;;;;4960778;28;20054;-82
2022/08/03 06:58:01;;;;;;;7.80;1.88;;;20.10;99.90;;;;;;4992481;28;20046;-81
2022/08/03 07:00:27;;;;;;;8.10;2.28;;;20.10;99.90;;;;;;4976429;28;20048;-83
2022/08/03 07:02:53;;;;;;;8.90;2.40;;;20.20;99.90;;;;;;4976476;28;20085;-81
2022/08/03 07:05:19;;;;;;;7.47;2.45;;;20.20;99.90;;;;;;4976687;28;20406;-80
2022/08/03 07:07:45;;;;;;;9.98;3.15;;;20.30;99.90;;;;;;4992514;28;20046;-84
2022/08/03 07:10:10;;;;;;;10.75;3.85;;;20.30;99.90;;;;;;4960664;28;20121;-80
2022/08/03 07:12:37;;;;;;;13.10;3.58;;;20.40;99.90;;;;;;4992838;28;20134;-82
2022/08/03 07:15:04;;;;;;;9.02;4.25;;;20.40;99.90;;;;;;4993150;28;20093;-81
2022/08/03 07:17:32;;;;;;;10.65;4.68;;;20.40;99.90;;;;;;4976557;28;20046;-80
2022/08/03 07:19:59;;;;;;;13.65;6.72;;;20.50;99.90;;;;;;4991724;28;20053;-80
2022/08/03 07:22:24;;;;;;;16.45;9.25;;;20.50;99.90;;;;;;4976507;28;20046;-84
2022/08/03 07:24:50;;;;;;;10.25;4.07;;;20.60;99.90;;;;;;4959748;28;20050;-83
2022/08/03 07:27:16;;;;;;;5.00;1.73;;;20.60;99.90;;;;;;4975678;28;20042;-82
2022/08/03 07:29:42;;;;;;;7.63;2.60;;;20.70;99.90;;;;;;4976350;28;20046;-82
2022/08/03 07:32:07;;;;;;;6.13;2.13;;;20.80;99.90;;;;;;4959699;28;20054;-82
2022/08/03 07:34:33;;;;;;;7.00;1.85;;;20.80;99.90;;;;;;4993693;28;20046;-80
2022/08/03 07:36:59;;;;;;;6.72;1.90;;;20.80;99.90;;;;;;4976050;28;20081;-82
2022/08/03 07:39:24;;;;;;;9.50;1.98;;;20.90;99.90;;;;;;4943987;28;20050;-82
2022/08/03 07:41:51;;;;;;;6.20;1.40;;;20.90;99.90;;;;;;4975700;28;20050;-82
2022/08/03 07:44:18;;;;;;;9.18;1.92;;;21.00;99.90;;;;;;4994517;28;20047;-84
2022/08/03 07:46:44;;;;;;;4.68;1.50;;;21.00;99.90;;;;;;4979380;28;20046;-82
2022/08/03 07:49:09;;;;;;;3.88;1.60;;;21.10;99.90;;;;;;4995927;28;20053;-87
2022/08/03 07:51:35;;;;;;;6.70;2.15;;;21.10;99.90;;;;;;4979529;28;20057;-82
2022/08/03 07:54:01;;;;;;;9.10;1.77;;;21.20;99.90;;;;;;4979818;28;20141;-82
2022/08/03 07:56:27;;;;;;;7.82;1.85;;;21.20;99.90;;;;;;4995875;28;20542;-82
2022/08/03 07:58:54;;;;;;;12.15;2.10;;;21.30;99.90;;;;;;4996543;28;20047;-81
2022/08/03 08:01:20;;;;;;;8.18;1.98;;;21.30;99.90;;;;;;4979594;28;20089;-82
2022/08/03 08:03:46;;;;;;;11.05;2.10;;;21.40;99.90;;;;;;4963860;28;20109;-80
2022/08/03 08:06:12;;;;;;;4.95;1.27;;;21.40;99.90;;;;;;4963109;28;20100;-85
2022/08/03 08:08:38;;;;;;;9.13;2.28;;;21.50;99.90;;;;;;4978985;28;20145;-81
2022/08/03 08:11:04;;;;;;;8.30;1.80;;;21.50;99.90;;;;;;4963403;28;20054;-82
2022/08/03 08:13:30;;;;;;;5.18;1.55;;;21.60;99.90;;;;;;4995772;28;20513;-82
2022/08/03 08:15:56;;;;;;;9.93;1.80;;;21.70;99.90;;;;;;4963622;28;20080;-83
2022/08/03 08:18:22;;;;;;;12.68;1.88;;;21.70;99.90;;;;;;4994780;28;20081;-83
2022/08/03 08:20:49;;;;;;;6.68;1.63;;;21.80;99.90;;;;;;4979100;28;20051;-86
2022/08/03 08:23:21;;;;;;;7.68;1.85;;;21.80;99.90;;;;;;4978703;28;20096;-86
2022/08/03 08:25:50;;;;;;;7.07;1.33;;;21.90;99.90;;;;;;4979182;28;20470;-84
2022/08/03 08:28:17;;;;;;;5.13;1.60;;;21.90;99.90;;;;;;4979091;28;20052;-81
2022/08/03 08:30:44;;;;;;;5.90;1.73;;;22.00;99.90;;;;;;4995598;28;20453;-85
2022/08/03 08:33:10;;;;;;;5.32;1.52;;;22.00;99.90;;;;;;4995770;28;20060;-85
2022/08/03 08:35:36;;;;;;;5.05;1.42;;;22.00;99.90;;;;;;4978846;28;20046;-84
2022/08/03 08:38:02;;;;;;;6.50;1.80;;;22.10;99.90;;;;;;4978675;28;20077;-83
2022/08/03 08:40:28;;;;;;;5.85;1.30;;;22.10;99.90;;;;;;4962129;28;20136;-83
2022/08/03 08:42:53;;;;;;;7.68;1.58;;;22.20;99.90;;;;;;4994724;28;20077;-84
2022/08/03 08:45:19;;;;;;;5.15;1.10;;;22.20;99.90;;;;;;4994310;28;20050;-86
2022/08/03 08:47:47;;;;;;;6.65;1.25;;;22.30;99.90;;;;;;4962605;28;20461;-84
2022/08/03 08:50:18;;;;;;;5.32;1.10;;;22.30;99.90;;;;;;4995011;28;20046;-83
2022/08/03 08:52:47;;;;;;;6.13;1.38;;;22.40;99.90;;;;;;4979014;28;20050;-82
2022/08/03 08:55:17;;;;;;;6.05;1.30;;;22.40;99.90;;;;;;4978058;28;20042;-85
2022/08/03 08:57:59;;;;;;;4.55;1.40;;;22.50;99.90;;;;;;4978074;28;20043;-81
2022/08/03 09:00:25;;;;;;;5.65;1.67;;;22.60;99.90;;;;;;4995316;28;20046;-81
2022/08/03 09:02:50;;;;;;;3.90;1.25;;;22.60;99.90;;;;;;4978273;28;20053;-80
2022/08/03 09:05:19;;;;;;;5.22;1.40;;;22.60;99.90;;;;;;4963500;28;20047;-83
2022/08/03 09:07:46;;;;;;;4.57;1.15;;;22.70;99.90;;;;;;4978703;28;20148;-82
2022/08/03 09:10:14;;;;;;;7.57;1.30;;;22.80;99.90;;;;;;4977779;28;20054;-85
2022/08/03 09:12:48;;;;;;;4.63;1.30;;;22.80;99.90;;;;;;4977876;28;20046;-84
2022/08/03 09:15:26;;;;;;;8.25;1.48;;;22.90;99.90;;;;;;4978763;28;20038;-84
2022/08/03 09:17:54;;;;;;;4.90;1.60;;;22.90;99.90;;;;;;4978516;28;20046;-81
2022/08/03 09:20:23;;;;;;;5.60;1.85;;;23.00;99.90;;;;;;4961813;28;20493;-83
2022/08/03 09:22:54;;;;;;;7.10;1.38;;;23.10;99.90;;;;;;4994538;28;20058;-83
2022/08/03 09:25:41;;;;;;;5.30;1.33;;;23.10;99.90;;;;;;4994259;28;20053;-82
2022/08/03 09:28:11;;;;;;;6.65;1.60;;;23.20;99.90;;;;;;4978281;28;20635;-82
2022/08/03 09:30:39;;;;;;;6.68;1.63;;;23.30;99.90;;;;;;4977887;28;20073;-81
2022/08/03 09:33:17;;;;;;;6.57;1.10;;;23.30;99.90;;;;;;4993609;28;20179;-80
2022/08/03 09:35:45;;;;;;;5.93;1.30;;;23.40;99.90;;;;;;4978346;28;20060;-77
2022/08/03 09:38:13;;;;;;;10.68;1.75;;;23.50;99.90;;;;;;4977647;28;20466;-79
2022/08/03 09:40:39;;;;;;;7.32;1.45;;;23.70;99.90;;;;;;4977575;28;20050;-79
2022/08/03 09:43:07;;;;;;;4.70;1.45;;;23.50;99.90;;;;;;4993317;28;20045;-84
2022/08/03 09:45:34;;;;;;;4.35;1.70;;;23.60;99.90;;;;;;4993721;28;20044;-83
2022/08/03 09:48:19;;;;;;;6.07;1.58;;;23.60;99.90;;;;;;4977022;28;20477;-80
2022/08/03 09:50:52;;;;;;;7.20;1.25;;;23.70;99.90;;;;;;4977507;28;20050;-82
2022/08/03 09:53:19;;;;;;;5.85;1.30;;;23.70;99.90;;;;;;4977916;28;20038;-79
2022/08/03 09:56:01;;;;;;;6.22;1.60;;;23.70;99.90;;;;;;4977440;28;20053;-80
2022/08/03 09:58:29;;;;;;;11.88;1.80;;;23.70;99.90;;;;;;4977385;28;20097;-80
2022/08/03 10:01:04;;;;;;;7.15;1.38;;;23.70;99.90;;;;;;4993106;28;20387;-79
2022/08/03 10:03:33;;;;;;;5.55;1.27;;;23.80;99.90;;;;;;4993585;28;20096;-81
2022/08/03 10:06:18;;;;;;;3.85;1.40;;;23.80;99.90;;;;;;4992870;28;20108;-79
2022/08/03 10:08:44;;;;;;;9.30;1.63;;;23.90;99.90;;;;;;4976257;28;20096;-82
2022/08/03 10:11:11;;;;;;;5.32;1.25;;;23.90;99.90;;;;;;4976735;28;20112;-79
2022/08/03 10:13:37;;;;;;;4.70;1.20;;;23.90;99.90;;;;;;4945044;28;20046;-79
2022/08/03 10:16:04;;;;;;;5.47;1.83;;;23.80;99.90;;;;;;4961194;28;20129;-80
2022/08/03 10:18:31;;;;;;;5.30;1.50;;;24.00;99.90;;;;;;4993615;28;20042;-83
2022/08/03 10:21:09;;;;;;;7.13;1.60;;;24.10;99.90;;;;;;4960897;28;20068;-82
2022/08/03 10:23:37;;;;;;;6.07;1.33;;;24.20;99.90;;;;;;4977394;28;20125;-80
2022/08/03 10:26:05;;;;;;;3.10;1.05;;;24.20;99.90;;;;;;4976917;28;20042;-80
2022/08/03 10:28:47;;;;;;;9.50;1.73;;;24.30;99.90;;;;;;4992789;28;20053;-80
2022/08/03 10:31:14;;;;;;;5.30;1.40;;;24.40;99.90;;;;;;4977294;28;20421;-81
2022/08/03 10:33:47;;;;;;;7.70;1.83;;;24.40;99.90;;;;;;4993435;28;20292;-81
2022/08/03 10:36:13;;;;;;;6.70;1.45;;;24.60;99.90;;;;;;4993150;28;20049;-78
2022/08/03 10:38:53;;;;;;;7.63;1.27;;;24.60;99.90;;;;;;4993030;28;20614;-85
2022/08/03 10:41:21;;;;;;;8.98;1.20;;;24.70;99.90;;;;;;4977085;28;20411;-80
2022/08/03 10:44:08;;;;;;;8.52;1.20;;;24.80;99.90;;;;;;4961158;28;20053;-80
2022/08/03 10:46:37;;;;;;;5.28;1.30;;;24.80;99.90;;;;;;4977184;28;20050;-82
2022/08/03 10:49:04;;;;;;;4.85;1.20;;;24.90;99.90;;;;;;4977393;28;20046;-81
2022/08/03 10:51:31;;;;;;;5.88;1.10;;;25.00;99.90;;;;;;4976582;28;20066;-79
2022/08/03 10:53:58;;;;;;;5.63;1.30;;;25.00;99.90;;;;;;4959966;28;20086;-80
2022/08/03 10:59:19;;;;;;;6.43;1.50;;;25.20;99.90;;;;;;4992933;28;20081;-77
2022/08/03 11:01:53;;;;;;;4.35;1.35;;;25.30;99.90;;;;;;4993209;28;20081;-76
2022/08/03 11:04:20;;;;;;;6.30;1.50;;;25.40;99.90;;;;;;4992469;28;20051;-85
2022/08/03 11:06:47;;;;;;;5.82;1.35;;;25.50;99.90;;;;;;4992074;28;20171;-85
2022/08/03 11:09:17;;;;;;;7.45;1.38;;;25.50;99.90;;;;;;4976806;28;20072;-83
2022/08/03 11:11:47;;;;;;;8.98;1.67;;;25.50;99.90;;;;;;4960305;28;20050;-83
2022/08/03 11:14:19;;;;;;;5.13;1.60;;;25.50;99.90;;;;;;4992971;28;20383;-81
2022/08/03 11:17:04;;;;;;;7.40;1.50;;;25.50;99.90;;;;;;4977510;28;20067;-80
2022/08/03 11:19:44;;;;;;;4.78;1.30;;;25.50;99.90;;;;;;4996778;28;20061;-84
2022/08/03 11:22:10;;;;;;;6.10;1.40;;;25.50;99.90;;;;;;4980313;28;20383;-85
2022/08/03 11:24:35;;;;;;;9.27;2.10;;;25.50;99.90;;;;;;4979949;28;20057;-80
2022/08/03 11:27:16;;;;;;;9.23;2.05;;;25.50;99.90;;;;;;4980362;28;20046;-79
2022/08/03 11:30:06;;;;;;;8.20;1.60;;;25.40;99.90;;;;;;4980501;28;20046;-81
2022/08/03 11:32:51;;;;;;;6.22;1.38;;;25.40;99.90;;;;;;4996371;28;20054;-82
2022/08/03 11:35:20;;;;;;;10.50;1.63;;;25.40;99.90;;;;;;4997814;28;20423;-80
2022/08/03 11:38:04;;;;;;;9.82;2.03;;;25.50;99.90;;;;;;4996740;28;20057;-79
2022/08/03 11:40:40;;;;;;;7.25;1.65;;;25.50;99.90;;;;;;4997203;28;20050;-78
2022/08/03 11:43:25;;;;;;;7.22;2.13;;;25.50;99.90;;;;;;4997276;28;20042;-79
2022/08/03 11:46:03;;;;;;;6.60;1.20;;;25.60;99.90;;;;;;4997056;28;20141;-82
2022/08/03 11:48:43;;;;;;;8.05;1.63;;;25.60;99.90;;;;;;4997764;28;20113;-81
2022/08/03 11:51:26;;;;;;;6.70;1.88;;;25.70;99.90;;;;;;4998243;28;20045;-81
2022/08/03 11:53:57;;;;;;;8.18;1.70;;;25.80;99.90;;;;;;4997516;28;20109;-84
2022/08/03 11:56:23;;;;;;;5.45;1.50;;;25.90;99.90;;;;;;4996639;28;20446;-80
2022/08/03 11:58:52;;;;;;;7.10;1.52;;;26.00;99.90;;;;;;4980655;28;20084;-82
2022/08/03 12:01:19;;;;;;;8.40;1.42;;;26.10;99.90;;;;;;4980664;28;20057;-79
2022/08/03 12:03:45;;;;;;;6.85;1.98;;;26.10;99.90;;;;;;4964348;28;20050;-81
2022/08/03 12:06:13;;;;;;;12.75;2.00;;;26.10;99.90;;;;;;4996607;28;20061;-81
2022/08/03 12:08:40;;;;;;;9.38;1.58;;;26.20;99.90;;;;;;4996277;28;20038;-79
2022/08/03 12:11:08;;;;;;;7.18;1.45;;;26.20;99.90;;;;;;4995653;28;20137;-80
2022/08/03 12:13:40;;;;;;;7.57;1.70;;;26.20;99.90;;;;;;4980113;28;20114;-80
2022/08/03 12:16:06;;;;;;;5.60;1.50;;;26.30;99.90;;;;;;4996198;28;20050;-82
2022/08/03 12:18:32;;;;;;;8.20;1.65;;;26.30;99.90;;;;;;4979062;28;20410;-81
2022/08/03 12:21:10;;;;;;;10.43;2.05;;;26.40;99.90;;;;;;4978852;28;20053;-87
2022/08/03 12:23:37;;;;;;;7.82;1.95;;;26.40;99.90;;;;;;4995315;28;20057;-82
2022/08/03 12:26:05;;;;;;;9.75;1.77;;;26.60;99.90;;;;;;4978988;28;20376;-83
2022/08/03 12:28:31;;;;;;;8.23;1.55;;;26.60;99.90;;;;;;4978975;28;20475;-83
2022/08/03 12:31:02;;;;;;;10.52;1.63;;;26.60;99.90;;;;;;4977699;28;20051;-83
2022/08/03 12:33:28;;;;;;;9.10;1.55;;;26.70;99.90;;;;;;4994830;28;20112;-81
2022/08/03 12:36:08;;;;;;;9.00;1.52;;;26.80;99.90;;;;;;4978276;28;20054;-83
2022/08/03 12:38:37;;;;;;;7.13;1.35;;;26.90;99.90;;;;;;4963366;28;20046;-82
2022/08/03 12:41:12;;;;;;;6.72;1.40;;;26.90;99.90;;;;;;4978403;28;20058;-83
2022/08/03 12:43:50;;;;;;;8.77;1.65;;;26.90;99.90;;;;;;4995051;28;20552;-84
2022/08/03 12:46:18;;;;;;;8.18;1.38;;;27.00;99.90;;;;;;4995523;28;20054;-85
2022/08/03 12:49:04;;;;;;;7.03;1.20;;;27.00;99.90;;;;;;4978354;28;20058;-83
2022/08/03 12:51:33;;;;;;;7.40;1.35;;;27.10;99.90;;;;;;4994831;28;20054;-81
2022/08/03 12:53:59;;;;;;;11.60;1.38;;;27.20;99.90;;;;;;4978541;28;20097;-84
2022/08/03 12:56:25;;;;;;;9.52;1.65;;;27.30;99.90;;;;;;4978573;28;20046;-83
2022/08/03 12:58:51;;;;;;;8.38;1.40;;;27.40;99.90;;;;;;4994590;28;20085;-84
2022/08/03 13:01:18;;;;;;;9.93;1.38;;;27.40;99.90;;;;;;4948098;28;20090;-83
2022/08/03 13:03:47;;;;;;;6.20;1.00;;;27.50;99.90;;;;;;4979956;28;20054;-79